UNR Ag. Experiment Farm, Sparks, Nevada Weather observations

Data are for 10 minute period ending at time listed.
 Day   Time   Solar   Ave.   Ave.  Ave.  Vector  Max.   Baro.   Total    
  of    of     Rad.   Air    Rel.  Wind   Wind   Wind  Press.  Precip.   
Year   Day            Temp.  Hum.  Speed  Dir.   Gust                    
2014   (PST)  Kw/m2    F      %     mph   deg.    mph    mb.     in.     
-------------------------------------------------------------------------
 303   19:50   0.00   49.3    62    2.3    79     4.0   862.7    0.00 
 303   20:00   0.00   49.6    60    0.8   343     3.5   862.6    0.00 
 303   20:10   0.00   48.2    63    1.1    85     2.1   862.5    0.00 
 303   20:20   0.00   46.8    66    1.1   201     4.2   862.5    0.00 
 303   20:30   0.00   46.2    68    2.7   214     5.5   862.5    0.00 
 303   20:40   0.00   47.8    63    1.9   157     4.5   862.6    0.00 
 303   20:50   0.00   47.4    63    1.1    93     3.1   862.6    0.00 
 303   21:00   0.00   45.4    68    2.2   146     3.9   862.6    0.00 
 303   21:10   0.00   44.4    70    1.7   300     3.4   862.7    0.00 
 303   21:20   0.00   45.4    70    1.8   282     4.7   862.7    0.00 
 303   21:30   0.00   47.0    64    2.6   166     5.9   862.7    0.00 
 303   21:40   0.00   47.4    63    2.3   140     4.3   862.6    0.00 
 303   21:50   0.00   46.3    65    1.5   170     2.9   862.6    0.00 
 303   22:00   0.00   45.9    67    2.1   316     3.8   862.6    0.00 
 303   22:10   0.00   46.7    65    1.6   106     3.8   862.5    0.00 
 303   22:20   0.00   44.5    70    2.2    84     3.9   862.4    0.00 
 303   22:30   0.00   43.2    74    1.7   181     5.3   862.3    0.00 
 303   22:40   0.00   42.7    77    2.7   272     5.9   862.4    0.00 
 303   22:50   0.00   44.1    72    2.1   110     4.9   862.3    0.00 
 303   23:00   0.00   42.9    74    3.1    83     5.3   862.3    0.00 
 303   23:10   0.00   43.3    72    2.1    71     4.5   862.1    0.00 
 303   23:20   0.00   42.1    75    1.0    77     2.4   862.1    0.00 
 303   23:30   0.00   42.2    77    2.1   310     5.0   862.0    0.00 
 303   23:40   0.00   46.3    65    0.9   359     3.1   862.0    0.00 
 303   23:50   0.00   46.4    62    1.4    98     3.5   861.9    0.00 
 304    0:00   0.00   44.8    65    2.6    80     4.3   861.8    0.00 
 304    0:10   0.00   44.3    66    2.1   157     3.6   861.8    0.00 
 304    0:20   0.00   48.5    52    1.9   169     4.0   861.6    0.00 
 304    0:30   0.00   52.2    41    3.3   190     5.1   861.5    0.00 
 304    0:40   0.00   54.0    36    2.4   167     4.9   861.4    0.00 
 304    0:50   0.00   52.9    40    2.1   189     7.1   861.4    0.00 
 304    1:00   0.00   53.5    38    3.3   222     6.4   861.4    0.00 
 304    1:10   0.00   53.6    35    3.0   194     4.8   861.3    0.00 
 304    1:20   0.00   48.8    48    1.7    17     3.4   861.2    0.00 
 304    1:30   0.00   46.6    52    2.6    49     4.2   861.2    0.00 
 304    1:40   0.00   48.9    46    2.6   295     5.3   861.2    0.00 
 304    1:50   0.00   49.4    46    3.2   272     5.9   861.0    0.00 
 304    2:00   0.00   55.5    34    7.6   200    12.1   861.0    0.00 
 304    2:10   0.00   57.5    31    8.0   206    12.6   860.9    0.00 
 304    2:20   0.00   57.6    31    8.1   193    11.8   860.6    0.00 
 304    2:30   0.00   57.5    32    8.5   185    14.9   860.4    0.00 
 304    2:40   0.00   57.9    32   10.0   173    17.3   860.2    0.00 
 304    2:50   0.00   58.2    32   14.5   173    23.3   860.1    0.00 
 304    3:00   0.00   58.5    32   14.4   181    19.9   860.1    0.00 
 304    3:10   0.00   58.2    33   14.3   192    22.0   860.0    0.00 
 304    3:20   0.00   58.3    33   13.6   195    22.1   860.1    0.00 
 304    3:30   0.00   57.9    33   12.3   199    20.4   860.0    0.00 
 304    3:40   0.00   57.5    34   10.7   208    16.8   859.9    0.00 
 304    3:50   0.00   57.0    35    8.5   206    12.8   860.0    0.00 
 304    4:00   0.00   56.6    35    8.4   209    12.1   860.0    0.00 
 304    4:10   0.00   56.6    36    8.1   191    13.7   860.0    0.00 
 304    4:20   0.00   56.3    36    9.1   202    13.6   860.0    0.00 
 304    4:30   0.00   57.0    35    9.0   190    14.3   859.9    0.00 
 304    4:40   0.00   57.0    35   10.8   189    16.7   859.9    0.00 
 304    4:50   0.00   57.0    36   12.7   190    19.9   859.9    0.00 
 304    5:00   0.00   56.9    37   10.8   190    17.5   859.9    0.00 
 304    5:10   0.00   55.2    40    7.2   171    13.3   860.0    0.00 
 304    5:20   0.00   56.5    38   12.7   180    18.0   860.0    0.00 
 304    5:30   0.00   56.9    36    6.0   211    14.0   860.0    0.00 
 304    5:40   0.00   54.4    41    4.1   198     6.6   860.0    0.00 
 304    5:50   0.00   53.1    42    4.4   265     9.0   860.1    0.00 
 304    6:00   0.00   52.4    43    4.6   273     7.3   860.2    0.00 
 304    6:10   0.00   51.5    44    3.6   254     6.9   860.3    0.00 
 304    6:20   0.00   51.7    45    3.1   226     6.1   860.3    0.00 
 304    6:30   0.00   53.7    42    5.7   299    11.5   860.1    0.00 
 304    6:40   0.00   52.1    46    3.4    10     8.3   859.9    0.00 
 304    6:50   0.01   51.1    47    5.1   262     8.1   859.9    0.00 
 304    7:00   0.01   50.5    49    1.7   356     4.0   859.9    0.00 
 304    7:10   0.03   51.0    48    3.9    19     6.3   859.9    0.00 
 304    7:20   0.07   50.0    50    1.5    53     4.2   859.9    0.00 
 304    7:30   0.11   50.2    50    5.1    10     7.9   860.1    0.00 
 304    7:40   0.12   49.1    52    5.3   340     6.9   860.0    0.00 
 304    7:50   0.15   49.7    53    3.4   347     5.8   859.9    0.00 
 304    8:00   0.18   51.8    46    1.7    16     3.4   860.1    0.00 
 304    8:10   0.21   53.1    45    2.1   352     4.0   860.0    0.00 
 304    8:20   0.23   53.5    46    5.3    21     9.6   860.0    0.00 
 304    8:30   0.26   54.1    46    5.1    19     9.1   860.0    0.00 
 304    8:40   0.28   55.5    44    6.0    23     9.6   859.8    0.00 
 304    8:50   0.31   57.3    41    6.3    44    10.1   859.7    0.00 
 304    9:00   0.34   58.0    39    4.7    37     7.0   859.6    0.00 
 304    9:10   0.36   58.6    39    3.9    18     6.1   859.5    0.00 
 304    9:20   0.38   59.3    38    4.2    19     7.9   859.4    0.00 
 304    9:30   0.40   60.7    33    3.6    31     6.9   859.4    0.00 
 304    9:40   0.42   61.1    31    5.3     7    13.2   859.2    0.00 
 304    9:50   0.44   60.5    32    3.8   311     9.1   859.1    0.00 
 304   10:00   0.46   61.7    31    2.9   308     5.3   859.1    0.00 
 304   10:10   0.45   62.4    30    2.8   305     6.3   859.1    0.00 
 304   10:20   0.46   62.6    30    4.9   270    13.9   859.0    0.00 
 304   10:30   0.54   64.6    24    8.5   208    14.2   858.9    0.00 
 304   10:40   0.54   65.6    23   12.0   214    19.1   858.8    0.00 
 304   10:50   0.54   66.6    23   13.5   216    21.3   858.6    0.00 
 304   11:00   0.54   66.4    22   12.8   218    21.3   858.5    0.00 
 304   11:10   0.56   66.9    23   12.1   225    17.3   858.3    0.00 
 304   11:20   0.57   67.0    21   10.2   176    17.6   858.1    0.00 
 304   11:30   0.58   67.8    20   10.1   176    19.0   857.9    0.00 
 304   11:40   0.57   68.0    21    9.0   186    19.4   857.8    0.00 
 304   11:50   0.59   67.6    21   11.1   199    18.0   857.7    0.00 
 304   12:00   0.62   67.7    23   12.7   227    22.5   857.6    0.00 
 304   12:10   0.60   67.7    22   12.1   200    19.2   857.5    0.00 
 304   12:20   0.60   68.5    22   10.7   193    17.6   857.3    0.00 
 304   12:30   0.59   68.0    23   12.3   222    20.0   857.1    0.00 
 304   12:40   0.57   67.5    24   13.3   223    20.7   856.9    0.00 
 304   12:50   0.56   67.7    24   15.1   238    26.3   856.6    0.00 
 304   13:00   0.55   67.5    26   13.9   230    20.6   856.5    0.00 
 304   13:10   0.54   67.4    25   13.9   233    21.6   856.3    0.00 
 304   13:20   0.53   67.7    25   12.8   231    20.2   856.3    0.00 
 304   13:30   0.52   68.0    24   12.6   219    20.7   856.2    0.00 
 304   13:40   0.51   67.6    24   12.4   226    18.6   856.1    0.00 
 304   13:50   0.49   67.7    24   10.7   224    20.5   856.0    0.00 
 304   14:00   0.47   67.7    24   11.8   214    18.2   855.9    0.00 
 304   14:10   0.46   67.7    24   10.8   216    15.7   855.8    0.00 
 304   14:20   0.45   67.4    24   11.0   213    17.5   855.7    0.00 
 304   14:30   0.43   67.1    24   12.2   201    18.8   855.5    0.00 
 304   14:40   0.42   67.2    24   12.6   200    20.0   855.3    0.00 
 304   14:50   0.40   66.8    25   12.4   202    19.6   855.1    0.00 
 304   15:00   0.38   66.6    25   12.0   204    18.2   855.1    0.00 
 304   15:10   0.36   66.6    24   12.2   206    19.6   855.0    0.00 
 304   15:20   0.36   66.7    24   11.2   203    18.1   854.9    0.00 
 304   15:30   0.37   66.3    24   11.7   206    18.6   854.9    0.00 
 304   15:40   0.34   66.1    24   10.8   198    17.4   854.9    0.00 
 304   15:50   0.30   65.6    25   11.1   174    17.0   854.9    0.00 
 304   16:00   0.26   65.2    26   11.3   182    21.0   854.9    0.00 
 304   16:10   0.21   64.3    27    8.9   179    17.5   854.9    0.00 
 304   16:20   0.09   63.2    28    8.9   175    15.5   854.8    0.00 
 304   16:30   0.04   62.1    29    9.3   164    13.7   854.6    0.00 
 304   16:40   0.03   61.4    30    7.6   183    12.0   854.5    0.00 
 304   16:50   0.02   60.9    30    7.6   170    12.6   854.4    0.00 
 304   17:00   0.00   60.3    31    7.0   162    12.2   854.4    0.00 
 304   17:10   0.00   59.8    32    7.2   167    11.7   854.3    0.00 
 304   17:20   0.00   59.8    32    3.4   197    10.8   854.3    0.00 
 304   17:30   0.00   58.7    36    4.7    82     9.6   854.2    0.00 
 304   17:40   0.00   55.6    46    6.7   312    15.5   854.2    0.00 
 304   17:50   0.00   54.2    49    3.0   317     9.3   854.2    0.00 
 304   18:00   0.00   53.7    50    8.9   358    15.6   854.2    0.00 
 304   18:10   0.00   53.6    50   13.2   322    22.1   854.2    0.00 
 304   18:20   0.00   53.4    51   14.2   320    24.5   854.4    0.00 
 304   18:30   0.00   52.1    53   13.8   314    21.4   854.4    0.00 
 304   18:40   0.00   52.1    52   13.7   310    23.4   854.4    0.00 
 304   18:50   0.00   52.2    52   10.0     6    19.6   854.6    0.00 
 304   19:00   0.00   51.6    54   10.1    22    17.3   854.8    0.00 
 304   19:10   0.00   51.1    55   11.4    10    16.4   854.7    0.00 
 304   19:20   0.00   51.1    55   10.7     9    15.9   854.6    0.00 
 304   19:30   0.00   50.8    55   11.0     4    16.7   854.7    0.00 
 304   19:40   0.00   50.5    55   12.4   358    19.4   854.6    0.00 

Return to Sparks, Nevada, UNR Ag Experiment Farm graphs page.


Western Regional Climate Center,wrcc@dri.edu